sensor_id;sensor_type;location;lat;lon;timestamp;P1;durP1;ratioP1;P2;durP2;ratioP2
51242;SDS011;37812;47.556;18.718;2022-08-21T00:00:16;8.30;;;4.78;;
51242;SDS011;37812;47.556;18.718;2022-08-21T00:02:46;8.10;;;4.30;;
51242;SDS011;37812;47.556;18.718;2022-08-21T00:05:15;7.87;;;4.37;;
51242;SDS011;37812;47.556;18.718;2022-08-21T00:07:42;8.38;;;4.37;;
51242;SDS011;37812;47.556;18.718;2022-08-21T00:10:08;7.70;;;4.28;;
51242;SDS011;37812;47.556;18.718;2022-08-21T00:12:35;8.35;;;4.47;;
51242;SDS011;37812;47.556;18.718;2022-08-21T00:15:01;7.70;;;4.53;;
51242;SDS011;37812;47.556;18.718;2022-08-21T00:17:27;9.43;;;4.78;;
51242;SDS011;37812;47.556;18.718;2022-08-21T00:19:52;7.70;;;4.20;;
51242;SDS011;37812;47.556;18.718;2022-08-21T00:22:18;7.97;;;4.60;;
51242;SDS011;37812;47.556;18.718;2022-08-21T00:24:44;8.07;;;4.50;;
51242;SDS011;37812;47.556;18.718;2022-08-21T00:27:10;8.35;;;4.30;;
51242;SDS011;37812;47.556;18.718;2022-08-21T00:29:36;7.85;;;4.47;;
51242;SDS011;37812;47.556;18.718;2022-08-21T00:32:02;8.15;;;4.37;;
51242;SDS011;37812;47.556;18.718;2022-08-21T00:34:28;8.02;;;4.45;;
51242;SDS011;37812;47.556;18.718;2022-08-21T00:36:54;8.50;;;4.50;;
51242;SDS011;37812;47.556;18.718;2022-08-21T00:39:20;7.70;;;4.30;;
51242;SDS011;37812;47.556;18.718;2022-08-21T00:41:46;8.77;;;4.80;;
51242;SDS011;37812;47.556;18.718;2022-08-21T00:44:14;8.70;;;4.80;;
51242;SDS011;37812;47.556;18.718;2022-08-21T00:46:41;7.97;;;4.47;;
51242;SDS011;37812;47.556;18.718;2022-08-21T00:49:08;8.38;;;4.78;;
51242;SDS011;37812;47.556;18.718;2022-08-21T00:54:06;8.07;;;4.35;;
51242;SDS011;37812;47.556;18.718;2022-08-21T00:56:35;8.45;;;4.30;;
51242;SDS011;37812;47.556;18.718;2022-08-21T00:59:02;8.32;;;4.53;;
51242;SDS011;37812;47.556;18.718;2022-08-21T01:01:28;8.93;;;4.50;;
51242;SDS011;37812;47.556;18.718;2022-08-21T01:03:54;8.32;;;4.70;;
51242;SDS011;37812;47.556;18.718;2022-08-21T01:06:20;7.90;;;4.32;;
51242;SDS011;37812;47.556;18.718;2022-08-21T01:08:46;8.13;;;4.30;;
51242;SDS011;37812;47.556;18.718;2022-08-21T01:11:13;8.38;;;4.30;;
51242;SDS011;37812;47.556;18.718;2022-08-21T01:13:40;8.48;;;4.60;;
51242;SDS011;37812;47.556;18.718;2022-08-21T01:16:12;8.43;;;4.60;;
51242;SDS011;37812;47.556;18.718;2022-08-21T01:18:41;8.30;;;4.47;;
51242;SDS011;37812;47.556;18.718;2022-08-21T01:21:10;8.88;;;4.60;;
51242;SDS011;37812;47.556;18.718;2022-08-21T01:23:37;7.97;;;4.40;;
51242;SDS011;37812;47.556;18.718;2022-08-21T01:26:05;9.10;;;4.43;;
51242;SDS011;37812;47.556;18.718;2022-08-21T01:28:33;8.38;;;4.40;;
51242;SDS011;37812;47.556;18.718;2022-08-21T01:31:03;8.38;;;4.40;;
51242;SDS011;37812;47.556;18.718;2022-08-21T01:33:33;7.72;;;4.18;;
51242;SDS011;37812;47.556;18.718;2022-08-21T01:35:59;8.75;;;5.07;;
51242;SDS011;37812;47.556;18.718;2022-08-21T01:38:25;8.48;;;4.45;;
51242;SDS011;37812;47.556;18.718;2022-08-21T01:40:51;8.15;;;4.50;;
51242;SDS011;37812;47.556;18.718;2022-08-21T01:43:17;9.45;;;4.68;;
51242;SDS011;37812;47.556;18.718;2022-08-21T01:45:43;8.75;;;4.50;;
51242;SDS011;37812;47.556;18.718;2022-08-21T01:48:09;9.25;;;5.00;;
51242;SDS011;37812;47.556;18.718;2022-08-21T01:50:35;10.27;;;4.68;;
51242;SDS011;37812;47.556;18.718;2022-08-21T01:53:01;7.97;;;4.62;;
51242;SDS011;37812;47.556;18.718;2022-08-21T01:55:27;9.55;;;5.10;;
51242;SDS011;37812;47.556;18.718;2022-08-21T01:57:53;8.93;;;4.95;;
51242;SDS011;37812;47.556;18.718;2022-08-21T02:00:20;9.15;;;4.72;;
51242;SDS011;37812;47.556;18.718;2022-08-21T02:02:48;8.38;;;4.50;;
51242;SDS011;37812;47.556;18.718;2022-08-21T02:05:15;8.68;;;5.47;;
51242;SDS011;37812;47.556;18.718;2022-08-21T02:07:45;9.15;;;4.85;;
51242;SDS011;37812;47.556;18.718;2022-08-21T02:10:15;8.52;;;4.47;;
51242;SDS011;37812;47.556;18.718;2022-08-21T02:12:45;8.65;;;4.75;;
51242;SDS011;37812;47.556;18.718;2022-08-21T02:15:11;8.27;;;4.50;;
51242;SDS011;37812;47.556;18.718;2022-08-21T02:17:41;8.20;;;4.53;;
51242;SDS011;37812;47.556;18.718;2022-08-21T02:20:15;10.55;;;4.82;;
51242;SDS011;37812;47.556;18.718;2022-08-21T02:22:43;8.38;;;4.30;;
51242;SDS011;37812;47.556;18.718;2022-08-21T02:25:09;8.10;;;4.55;;
51242;SDS011;37812;47.556;18.718;2022-08-21T02:27:39;8.10;;;4.53;;
51242;SDS011;37812;47.556;18.718;2022-08-21T02:30:07;8.50;;;4.45;;
51242;SDS011;37812;47.556;18.718;2022-08-21T02:32:37;9.60;;;4.57;;
51242;SDS011;37812;47.556;18.718;2022-08-21T02:35:03;9.20;;;4.75;;
51242;SDS011;37812;47.556;18.718;2022-08-21T02:37:30;8.10;;;4.50;;
51242;SDS011;37812;47.556;18.718;2022-08-21T02:39:56;9.35;;;4.80;;
51242;SDS011;37812;47.556;18.718;2022-08-21T02:42:22;9.35;;;4.82;;
51242;SDS011;37812;47.556;18.718;2022-08-21T02:44:48;8.57;;;4.40;;
51242;SDS011;37812;47.556;18.718;2022-08-21T02:47:14;8.23;;;4.65;;
51242;SDS011;37812;47.556;18.718;2022-08-21T02:49:40;11.73;;;5.18;;
51242;SDS011;37812;47.556;18.718;2022-08-21T02:52:06;8.38;;;4.68;;
51242;SDS011;37812;47.556;18.718;2022-08-21T02:54:32;7.95;;;4.43;;
51242;SDS011;37812;47.556;18.718;2022-08-21T02:56:58;8.10;;;4.40;;
51242;SDS011;37812;47.556;18.718;2022-08-21T02:59:23;8.07;;;4.53;;
51242;SDS011;37812;47.556;18.718;2022-08-21T03:01:49;8.93;;;4.90;;
51242;SDS011;37812;47.556;18.718;2022-08-21T03:04:15;7.85;;;4.37;;
51242;SDS011;37812;47.556;18.718;2022-08-21T03:06:41;9.73;;;4.62;;
51242;SDS011;37812;47.556;18.718;2022-08-21T03:09:08;8.60;;;4.70;;
51242;SDS011;37812;47.556;18.718;2022-08-21T03:11:34;8.60;;;4.60;;
51242;SDS011;37812;47.556;18.718;2022-08-21T03:14:01;8.18;;;4.60;;
51242;SDS011;37812;47.556;18.718;2022-08-21T03:16:27;9.30;;;4.85;;
51242;SDS011;37812;47.556;18.718;2022-08-21T03:18:53;10.02;;;4.72;;
51242;SDS011;37812;47.556;18.718;2022-08-21T03:21:19;7.90;;;4.55;;
51242;SDS011;37812;47.556;18.718;2022-08-21T03:23:45;8.88;;;4.93;;
51242;SDS011;37812;47.556;18.718;2022-08-21T03:26:12;10.60;;;5.15;;
51242;SDS011;37812;47.556;18.718;2022-08-21T03:28:37;8.95;;;4.75;;
51242;SDS011;37812;47.556;18.718;2022-08-21T03:31:03;9.30;;;4.80;;
51242;SDS011;37812;47.556;18.718;2022-08-21T03:33:31;9.38;;;5.07;;
51242;SDS011;37812;47.556;18.718;2022-08-21T03:35:59;9.02;;;4.97;;
51242;SDS011;37812;47.556;18.718;2022-08-21T03:38:28;9.40;;;5.25;;
51242;SDS011;37812;47.556;18.718;2022-08-21T03:40:56;8.00;;;4.70;;
51242;SDS011;37812;47.556;18.718;2022-08-21T03:43:22;10.30;;;5.20;;
51242;SDS011;37812;47.556;18.718;2022-08-21T03:45:48;12.07;;;5.35;;
51242;SDS011;37812;47.556;18.718;2022-08-21T03:48:14;9.05;;;5.30;;
51242;SDS011;37812;47.556;18.718;2022-08-21T03:50:41;9.68;;;5.03;;
51242;SDS011;37812;47.556;18.718;2022-08-21T03:53:10;10.68;;;4.85;;
51242;SDS011;37812;47.556;18.718;2022-08-21T03:55:37;9.75;;;4.90;;
51242;SDS011;37812;47.556;18.718;2022-08-21T03:58:03;9.98;;;5.05;;
51242;SDS011;37812;47.556;18.718;2022-08-21T04:00:29;8.73;;;4.75;;
51242;SDS011;37812;47.556;18.718;2022-08-21T04:02:55;9.82;;;5.15;;
51242;SDS011;37812;47.556;18.718;2022-08-21T04:05:21;9.13;;;5.28;;
51242;SDS011;37812;47.556;18.718;2022-08-21T04:07:57;9.57;;;5.33;;
51242;SDS011;37812;47.556;18.718;2022-08-21T04:10:24;11.20;;;4.93;;
51242;SDS011;37812;47.556;18.718;2022-08-21T04:12:52;9.63;;;5.00;;
51242;SDS011;37812;47.556;18.718;2022-08-21T04:15:18;8.95;;;5.22;;
51242;SDS011;37812;47.556;18.718;2022-08-21T04:17:45;9.55;;;4.87;;
51242;SDS011;37812;47.556;18.718;2022-08-21T04:20:11;9.65;;;4.90;;
51242;SDS011;37812;47.556;18.718;2022-08-21T04:22:38;9.27;;;4.87;;
51242;SDS011;37812;47.556;18.718;2022-08-21T04:25:04;8.63;;;4.72;;
51242;SDS011;37812;47.556;18.718;2022-08-21T04:27:31;9.38;;;5.03;;
51242;SDS011;37812;47.556;18.718;2022-08-21T04:29:56;8.38;;;4.82;;
51242;SDS011;37812;47.556;18.718;2022-08-21T04:32:23;8.48;;;4.80;;
51242;SDS011;37812;47.556;18.718;2022-08-21T04:34:50;9.40;;;5.22;;
51242;SDS011;37812;47.556;18.718;2022-08-21T04:37:16;8.05;;;4.68;;
51242;SDS011;37812;47.556;18.718;2022-08-21T04:39:42;8.95;;;4.75;;
51242;SDS011;37812;47.556;18.718;2022-08-21T04:42:08;8.40;;;4.57;;
51242;SDS011;37812;47.556;18.718;2022-08-21T04:44:34;8.43;;;4.40;;
51242;SDS011;37812;47.556;18.718;2022-08-21T04:47:00;8.95;;;5.15;;
51242;SDS011;37812;47.556;18.718;2022-08-21T04:49:26;7.82;;;4.47;;
51242;SDS011;37812;47.556;18.718;2022-08-21T04:51:52;8.00;;;4.57;;
51242;SDS011;37812;47.556;18.718;2022-08-21T04:54:21;7.78;;;4.28;;
51242;SDS011;37812;47.556;18.718;2022-08-21T04:56:49;8.38;;;4.57;;
51242;SDS011;37812;47.556;18.718;2022-08-21T04:59:28;8.13;;;4.62;;
51242;SDS011;37812;47.556;18.718;2022-08-21T05:01:57;9.40;;;4.87;;
51242;SDS011;37812;47.556;18.718;2022-08-21T05:04:26;10.15;;;4.60;;
51242;SDS011;37812;47.556;18.718;2022-08-21T05:06:56;8.60;;;4.45;;
51242;SDS011;37812;47.556;18.718;2022-08-21T05:09:25;7.93;;;4.57;;
51242;SDS011;37812;47.556;18.718;2022-08-21T05:11:52;8.10;;;4.50;;
51242;SDS011;37812;47.556;18.718;2022-08-21T05:14:20;7.95;;;4.35;;
51242;SDS011;37812;47.556;18.718;2022-08-21T05:16:46;8.07;;;4.65;;
51242;SDS011;37812;47.556;18.718;2022-08-21T05:19:12;8.45;;;4.47;;
51242;SDS011;37812;47.556;18.718;2022-08-21T05:21:43;8.35;;;4.45;;
51242;SDS011;37812;47.556;18.718;2022-08-21T05:24:10;8.13;;;4.40;;
51242;SDS011;37812;47.556;18.718;2022-08-21T05:26:37;8.18;;;4.55;;
51242;SDS011;37812;47.556;18.718;2022-08-21T05:29:04;9.15;;;4.55;;
51242;SDS011;37812;47.556;18.718;2022-08-21T05:31:31;8.10;;;4.50;;
51242;SDS011;37812;47.556;18.718;2022-08-21T05:33:57;8.30;;;4.30;;
51242;SDS011;37812;47.556;18.718;2022-08-21T05:36:23;7.78;;;4.30;;
51242;SDS011;37812;47.556;18.718;2022-08-21T05:38:49;7.70;;;4.30;;
51242;SDS011;37812;47.556;18.718;2022-08-21T05:41:15;8.57;;;4.53;;
51242;SDS011;37812;47.556;18.718;2022-08-21T05:43:41;9.27;;;4.32;;
51242;SDS011;37812;47.556;18.718;2022-08-21T05:46:07;7.68;;;4.07;;
51242;SDS011;37812;47.556;18.718;2022-08-21T05:48:35;7.75;;;4.10;;
51242;SDS011;37812;47.556;18.718;2022-08-21T05:51:06;7.60;;;4.10;;
51242;SDS011;37812;47.556;18.718;2022-08-21T05:53:34;7.57;;;4.07;;
51242;SDS011;37812;47.556;18.718;2022-08-21T05:56:01;8.35;;;4.00;;
51242;SDS011;37812;47.556;18.718;2022-08-21T05:58:29;8.30;;;4.40;;
51242;SDS011;37812;47.556;18.718;2022-08-21T06:00:56;8.13;;;4.30;;
51242;SDS011;37812;47.556;18.718;2022-08-21T06:03:24;7.80;;;4.20;;
51242;SDS011;37812;47.556;18.718;2022-08-21T06:05:52;8.65;;;4.40;;
51242;SDS011;37812;47.556;18.718;2022-08-21T06:08:19;8.75;;;4.62;;
51242;SDS011;37812;47.556;18.718;2022-08-21T06:10:46;8.15;;;4.40;;
51242;SDS011;37812;47.556;18.718;2022-08-21T06:13:14;7.78;;;4.50;;
51242;SDS011;37812;47.556;18.718;2022-08-21T06:15:41;8.98;;;4.75;;
51242;SDS011;37812;47.556;18.718;2022-08-21T06:18:07;8.15;;;4.00;;
51242;SDS011;37812;47.556;18.718;2022-08-21T06:20:34;8.52;;;4.40;;
51242;SDS011;37812;47.556;18.718;2022-08-21T06:23:00;8.38;;;4.47;;
51242;SDS011;37812;47.556;18.718;2022-08-21T06:25:27;8.07;;;4.37;;
51242;SDS011;37812;47.556;18.718;2022-08-21T06:27:59;8.30;;;4.37;;
51242;SDS011;37812;47.556;18.718;2022-08-21T06:30:35;8.60;;;4.47;;
51242;SDS011;37812;47.556;18.718;2022-08-21T06:33:04;8.40;;;4.80;;
51242;SDS011;37812;47.556;18.718;2022-08-21T06:35:31;7.93;;;4.28;;
51242;SDS011;37812;47.556;18.718;2022-08-21T06:37:58;7.53;;;4.03;;
51242;SDS011;37812;47.556;18.718;2022-08-21T06:40:28;8.50;;;4.62;;
51242;SDS011;37812;47.556;18.718;2022-08-21T06:42:56;7.85;;;4.43;;
51242;SDS011;37812;47.556;18.718;2022-08-21T06:45:23;8.10;;;4.57;;
51242;SDS011;37812;47.556;18.718;2022-08-21T06:47:50;8.10;;;4.30;;
51242;SDS011;37812;47.556;18.718;2022-08-21T06:50:16;8.15;;;4.35;;
51242;SDS011;37812;47.556;18.718;2022-08-21T06:52:42;7.93;;;4.22;;
51242;SDS011;37812;47.556;18.718;2022-08-21T06:55:08;8.10;;;4.32;;
51242;SDS011;37812;47.556;18.718;2022-08-21T06:57:37;7.82;;;4.57;;
51242;SDS011;37812;47.556;18.718;2022-08-21T07:00:04;9.10;;;4.62;;
51242;SDS011;37812;47.556;18.718;2022-08-21T07:02:32;8.25;;;4.60;;
51242;SDS011;37812;47.556;18.718;2022-08-21T07:04:59;7.60;;;4.18;;
51242;SDS011;37812;47.556;18.718;2022-08-21T07:07:25;8.73;;;4.80;;
51242;SDS011;37812;47.556;18.718;2022-08-21T07:09:51;8.55;;;4.30;;
51242;SDS011;37812;47.556;18.718;2022-08-21T07:12:16;8.15;;;4.20;;
51242;SDS011;37812;47.556;18.718;2022-08-21T07:14:42;7.53;;;4.30;;
51242;SDS011;37812;47.556;18.718;2022-08-21T07:17:08;7.87;;;4.20;;
51242;SDS011;37812;47.556;18.718;2022-08-21T07:19:34;9.38;;;4.30;;
51242;SDS011;37812;47.556;18.718;2022-08-21T07:22:01;7.93;;;4.40;;
51242;SDS011;37812;47.556;18.718;2022-08-21T07:24:28;8.90;;;4.93;;
51242;SDS011;37812;47.556;18.718;2022-08-21T07:26:54;8.02;;;4.20;;
51242;SDS011;37812;47.556;18.718;2022-08-21T07:29:20;8.23;;;4.50;;
51242;SDS011;37812;47.556;18.718;2022-08-21T07:31:46;8.00;;;4.50;;
51242;SDS011;37812;47.556;18.718;2022-08-21T07:34:12;8.50;;;4.60;;
51242;SDS011;37812;47.556;18.718;2022-08-21T07:36:38;7.80;;;4.47;;
51242;SDS011;37812;47.556;18.718;2022-08-21T07:39:04;10.40;;;4.50;;
51242;SDS011;37812;47.556;18.718;2022-08-21T07:41:31;8.23;;;4.72;;
51242;SDS011;37812;47.556;18.718;2022-08-21T07:43:57;8.50;;;5.22;;
51242;SDS011;37812;47.556;18.718;2022-08-21T07:46:24;8.25;;;5.15;;
51242;SDS011;37812;47.556;18.718;2022-08-21T07:48:51;7.93;;;4.60;;
51242;SDS011;37812;47.556;18.718;2022-08-21T07:51:18;8.95;;;4.75;;
51242;SDS011;37812;47.556;18.718;2022-08-21T07:53:50;8.50;;;4.55;;
51242;SDS011;37812;47.556;18.718;2022-08-21T07:56:17;8.10;;;4.45;;
51242;SDS011;37812;47.556;18.718;2022-08-21T07:58:44;9.27;;;5.15;;
51242;SDS011;37812;47.556;18.718;2022-08-21T08:01:10;8.77;;;5.40;;
51242;SDS011;37812;47.556;18.718;2022-08-21T08:03:36;7.95;;;4.80;;
51242;SDS011;37812;47.556;18.718;2022-08-21T08:06:04;8.32;;;4.85;;
51242;SDS011;37812;47.556;18.718;2022-08-21T08:08:30;8.40;;;4.82;;
51242;SDS011;37812;47.556;18.718;2022-08-21T08:10:57;8.63;;;4.87;;
51242;SDS011;37812;47.556;18.718;2022-08-21T08:13:24;8.52;;;4.85;;
51242;SDS011;37812;47.556;18.718;2022-08-21T08:15:50;8.65;;;5.00;;
51242;SDS011;37812;47.556;18.718;2022-08-21T08:18:16;8.70;;;4.65;;
51242;SDS011;37812;47.556;18.718;2022-08-21T08:20:42;8.60;;;5.20;;
51242;SDS011;37812;47.556;18.718;2022-08-21T08:23:12;8.27;;;4.78;;
51242;SDS011;37812;47.556;18.718;2022-08-21T08:25:39;8.38;;;4.90;;
51242;SDS011;37812;47.556;18.718;2022-08-21T08:28:05;8.18;;;4.68;;
51242;SDS011;37812;47.556;18.718;2022-08-21T08:30:33;8.52;;;4.72;;
51242;SDS011;37812;47.556;18.718;2022-08-21T08:32:59;8.45;;;5.03;;
51242;SDS011;37812;47.556;18.718;2022-08-21T08:35:26;8.65;;;5.10;;
51242;SDS011;37812;47.556;18.718;2022-08-21T08:37:52;8.38;;;4.97;;
51242;SDS011;37812;47.556;18.718;2022-08-21T08:40:41;8.93;;;5.25;;
51242;SDS011;37812;47.556;18.718;2022-08-21T08:43:10;8.48;;;4.78;;
51242;SDS011;37812;47.556;18.718;2022-08-21T08:45:39;8.10;;;4.65;;
51242;SDS011;37812;47.556;18.718;2022-08-21T08:48:09;8.65;;;5.18;;
51242;SDS011;37812;47.556;18.718;2022-08-21T08:53:21;8.18;;;4.60;;
51242;SDS011;37812;47.556;18.718;2022-08-21T08:56:11;7.90;;;4.30;;
51242;SDS011;37812;47.556;18.718;2022-08-21T08:58:38;8.57;;;4.80;;
51242;SDS011;37812;47.556;18.718;2022-08-21T09:01:09;8.60;;;4.80;;
51242;SDS011;37812;47.556;18.718;2022-08-21T09:03:39;8.52;;;4.85;;
51242;SDS011;37812;47.556;18.718;2022-08-21T09:08:54;9.68;;;4.85;;
51242;SDS011;37812;47.556;18.718;2022-08-21T09:11:37;8.30;;;4.12;;
51242;SDS011;37812;47.556;18.718;2022-08-21T09:16:48;9.55;;;4.97;;
51242;SDS011;37812;47.556;18.718;2022-08-21T09:27:48;8.27;;;5.00;;
51242;SDS011;37812;47.556;18.718;2022-08-21T09:30:14;8.32;;;4.68;;
51242;SDS011;37812;47.556;18.718;2022-08-21T09:32:40;8.30;;;4.78;;
51242;SDS011;37812;47.556;18.718;2022-08-21T09:35:14;8.80;;;4.93;;
51242;SDS011;37812;47.556;18.718;2022-08-21T09:40:19;8.95;;;4.78;;
51242;SDS011;37812;47.556;18.718;2022-08-21T09:42:55;8.65;;;5.20;;
51242;SDS011;37812;47.556;18.718;2022-08-21T09:45:23;7.90;;;4.53;;
51242;SDS011;37812;47.556;18.718;2022-08-21T09:47:49;8.07;;;4.75;;
51242;SDS011;37812;47.556;18.718;2022-08-21T09:50:23;8.82;;;4.90;;
51242;SDS011;37812;47.556;18.718;2022-08-21T09:52:56;8.07;;;4.40;;
51242;SDS011;37812;47.556;18.718;2022-08-21T09:55:31;9.52;;;5.07;;
51242;SDS011;37812;47.556;18.718;2022-08-21T09:58:18;8.00;;;4.65;;
51242;SDS011;37812;47.556;18.718;2022-08-21T10:00:47;7.90;;;4.32;;
51242;SDS011;37812;47.556;18.718;2022-08-21T10:03:23;8.40;;;5.07;;
51242;SDS011;37812;47.556;18.718;2022-08-21T10:06:00;8.90;;;5.10;;
51242;SDS011;37812;47.556;18.718;2022-08-21T10:08:31;8.88;;;4.47;;
51242;SDS011;37812;47.556;18.718;2022-08-21T10:11:04;8.95;;;4.57;;
51242;SDS011;37812;47.556;18.718;2022-08-21T10:16:13;9.90;;;5.10;;
51242;SDS011;37812;47.556;18.718;2022-08-21T10:33:24;8.85;;;5.85;;
51242;SDS011;37812;47.556;18.718;2022-08-21T10:38:51;8.55;;;4.60;;
51242;SDS011;37812;47.556;18.718;2022-08-21T10:46:50;8.23;;;4.87;;
51242;SDS011;37812;47.556;18.718;2022-08-21T10:55:26;8.82;;;4.62;;
51242;SDS011;37812;47.556;18.718;2022-08-21T11:00:51;8.77;;;4.37;;
51242;SDS011;37812;47.556;18.718;2022-08-21T11:06:17;8.20;;;4.78;;
51242;SDS011;37812;47.556;18.718;2022-08-21T11:08:48;8.43;;;4.87;;
51242;SDS011;37812;47.556;18.718;2022-08-21T11:11:31;8.63;;;4.40;;
51242;SDS011;37812;47.556;18.718;2022-08-21T11:14:09;8.15;;;4.82;;
51242;SDS011;37812;47.556;18.718;2022-08-21T11:16:45;9.10;;;5.15;;
51242;SDS011;37812;47.556;18.718;2022-08-21T11:19:31;8.13;;;4.72;;
51242;SDS011;37812;47.556;18.718;2022-08-21T11:27:45;7.78;;;4.62;;
51242;SDS011;37812;47.556;18.718;2022-08-21T11:30:16;8.02;;;4.50;;
51242;SDS011;37812;47.556;18.718;2022-08-21T11:46:49;7.93;;;4.28;;
51242;SDS011;37812;47.556;18.718;2022-08-21T11:52:47;8.20;;;4.72;;
51242;SDS011;37812;47.556;18.718;2022-08-21T11:55:26;8.80;;;4.60;;
51242;SDS011;37812;47.556;18.718;2022-08-21T12:01:08;8.40;;;4.68;;
51242;SDS011;37812;47.556;18.718;2022-08-21T12:03:42;8.45;;;4.60;;
51242;SDS011;37812;47.556;18.718;2022-08-21T12:06:27;8.30;;;4.50;;
51242;SDS011;37812;47.556;18.718;2022-08-21T12:09:00;8.32;;;4.35;;
51242;SDS011;37812;47.556;18.718;2022-08-21T12:11:29;8.13;;;4.57;;
51242;SDS011;37812;47.556;18.718;2022-08-21T12:13:57;8.30;;;4.70;;
51242;SDS011;37812;47.556;18.718;2022-08-21T12:16:48;8.25;;;4.82;;
51242;SDS011;37812;47.556;18.718;2022-08-21T12:19:56;8.10;;;4.62;;
51242;SDS011;37812;47.556;18.718;2022-08-21T12:22:12;8.30;;;4.83;;
51242;SDS011;37812;47.556;18.718;2022-08-21T12:24:44;8.98;;;4.78;;
51242;SDS011;37812;47.556;18.718;2022-08-21T12:29:50;7.85;;;4.18;;
51242;SDS011;37812;47.556;18.718;2022-08-21T12:33:02;8.48;;;4.80;;
51242;SDS011;37812;47.556;18.718;2022-08-21T12:35:18;8.38;;;4.78;;
51242;SDS011;37812;47.556;18.718;2022-08-21T12:37:56;8.50;;;4.55;;
51242;SDS011;37812;47.556;18.718;2022-08-21T12:40:29;8.20;;;4.50;;
51242;SDS011;37812;47.556;18.718;2022-08-21T12:43:59;9.00;;;4.55;;
51242;SDS011;37812;47.556;18.718;2022-08-21T12:46:17;8.95;;;4.20;;
51242;SDS011;37812;47.556;18.718;2022-08-21T12:48:52;8.27;;;4.43;;
51242;SDS011;37812;47.556;18.718;2022-08-21T12:51:29;8.05;;;4.62;;
51242;SDS011;37812;47.556;18.718;2022-08-21T12:54:26;7.80;;;4.32;;
51242;SDS011;37812;47.556;18.718;2022-08-21T12:57:02;8.40;;;4.28;;
51242;SDS011;37812;47.556;18.718;2022-08-21T12:59:31;8.15;;;4.50;;
51242;SDS011;37812;47.556;18.718;2022-08-21T13:02:03;8.52;;;4.60;;
51242;SDS011;37812;47.556;18.718;2022-08-21T13:04:39;7.80;;;4.30;;
51242;SDS011;37812;47.556;18.718;2022-08-21T13:07:08;9.00;;;4.80;;
51242;SDS011;37812;47.556;18.718;2022-08-21T13:09:46;8.20;;;4.90;;
51242;SDS011;37812;47.556;18.718;2022-08-21T13:12:25;8.13;;;4.80;;
51242;SDS011;37812;47.556;18.718;2022-08-21T13:14:56;8.13;;;4.50;;
51242;SDS011;37812;47.556;18.718;2022-08-21T13:17:24;8.30;;;4.80;;
51242;SDS011;37812;47.556;18.718;2022-08-21T13:19:59;8.13;;;4.80;;
51242;SDS011;37812;47.556;18.718;2022-08-21T13:22:28;7.82;;;4.70;;
51242;SDS011;37812;47.556;18.718;2022-08-21T13:24:55;8.30;;;4.60;;
51242;SDS011;37812;47.556;18.718;2022-08-21T13:27:26;7.80;;;4.70;;
51242;SDS011;37812;47.556;18.718;2022-08-21T13:30:00;7.60;;;4.20;;
51242;SDS011;37812;47.556;18.718;2022-08-21T13:32:29;7.90;;;4.28;;
51242;SDS011;37812;47.556;18.718;2022-08-21T13:34:58;8.63;;;4.53;;
51242;SDS011;37812;47.556;18.718;2022-08-21T13:37:33;8.18;;;4.43;;
51242;SDS011;37812;47.556;18.718;2022-08-21T13:40:01;7.55;;;4.18;;
51242;SDS011;37812;47.556;18.718;2022-08-21T13:42:27;7.50;;;4.00;;
51242;SDS011;37812;47.556;18.718;2022-08-21T13:44:53;7.30;;;3.80;;
51242;SDS011;37812;47.556;18.718;2022-08-21T13:47:19;7.40;;;3.90;;
51242;SDS011;37812;47.556;18.718;2022-08-21T13:49:46;7.70;;;4.30;;
51242;SDS011;37812;47.556;18.718;2022-08-21T13:52:20;7.70;;;4.20;;
51242;SDS011;37812;47.556;18.718;2022-08-21T13:54:52;7.70;;;4.12;;
51242;SDS011;37812;47.556;18.718;2022-08-21T13:57:27;7.53;;;3.90;;
51242;SDS011;37812;47.556;18.718;2022-08-21T14:00:15;7.55;;;3.97;;
51242;SDS011;37812;47.556;18.718;2022-08-21T14:02:48;7.47;;;4.10;;
51242;SDS011;37812;47.556;18.718;2022-08-21T14:05:28;7.20;;;3.60;;
51242;SDS011;37812;47.556;18.718;2022-08-21T14:08:07;7.50;;;4.00;;
51242;SDS011;37812;47.556;18.718;2022-08-21T14:10:44;7.50;;;3.90;;
51242;SDS011;37812;47.556;18.718;2022-08-21T14:13:24;7.40;;;3.85;;
51242;SDS011;37812;47.556;18.718;2022-08-21T14:15:57;7.45;;;3.95;;
51242;SDS011;37812;47.556;18.718;2022-08-21T14:18:24;7.60;;;4.20;;
51242;SDS011;37812;47.556;18.718;2022-08-21T14:20:52;7.45;;;3.90;;
51242;SDS011;37812;47.556;18.718;2022-08-21T14:23:30;7.60;;;4.20;;
51242;SDS011;37812;47.556;18.718;2022-08-21T14:25:58;7.40;;;3.83;;
51242;SDS011;37812;47.556;18.718;2022-08-21T14:28:30;7.47;;;3.95;;
51242;SDS011;37812;47.556;18.718;2022-08-21T14:31:16;7.40;;;3.83;;
51242;SDS011;37812;47.556;18.718;2022-08-21T14:33:44;7.62;;;4.18;;
51242;SDS011;37812;47.556;18.718;2022-08-21T14:36:11;7.40;;;3.70;;
51242;SDS011;37812;47.556;18.718;2022-08-21T14:38:38;7.50;;;3.70;;
51242;SDS011;37812;47.556;18.718;2022-08-21T14:41:19;7.40;;;3.80;;
51242;SDS011;37812;47.556;18.718;2022-08-21T14:43:51;7.43;;;3.87;;
51242;SDS011;37812;47.556;18.718;2022-08-21T14:46:23;7.43;;;3.78;;
51242;SDS011;37812;47.556;18.718;2022-08-21T14:48:50;7.70;;;3.80;;
51242;SDS011;37812;47.556;18.718;2022-08-21T14:51:16;7.50;;;4.30;;
51242;SDS011;37812;47.556;18.718;2022-08-21T14:53:42;7.40;;;3.90;;
51242;SDS011;37812;47.556;18.718;2022-08-21T14:56:10;7.57;;;4.10;;
51242;SDS011;37812;47.556;18.718;2022-08-21T14:58:40;7.90;;;4.20;;
51242;SDS011;37812;47.556;18.718;2022-08-21T15:01:08;7.65;;;4.12;;
51242;SDS011;37812;47.556;18.718;2022-08-21T15:03:36;7.70;;;4.18;;
51242;SDS011;37812;47.556;18.718;2022-08-21T15:06:03;7.50;;;4.10;;
51242;SDS011;37812;47.556;18.718;2022-08-21T15:08:31;7.32;;;3.80;;
51242;SDS011;37812;47.556;18.718;2022-08-21T15:10:58;7.50;;;3.83;;
51242;SDS011;37812;47.556;18.718;2022-08-21T15:13:25;7.75;;;4.05;;
51242;SDS011;37812;47.556;18.718;2022-08-21T15:15:52;7.40;;;3.85;;
51242;SDS011;37812;47.556;18.718;2022-08-21T15:18:19;8.85;;;4.32;;
51242;SDS011;37812;47.556;18.718;2022-08-21T15:20:46;7.93;;;4.43;;
51242;SDS011;37812;47.556;18.718;2022-08-21T15:23:12;7.50;;;4.07;;
51242;SDS011;37812;47.556;18.718;2022-08-21T15:25:40;9.73;;;4.25;;
51242;SDS011;37812;47.556;18.718;2022-08-21T15:28:07;7.50;;;4.10;;
51242;SDS011;37812;47.556;18.718;2022-08-21T15:30:34;7.40;;;3.90;;
51242;SDS011;37812;47.556;18.718;2022-08-21T15:33:01;7.80;;;4.30;;
51242;SDS011;37812;47.556;18.718;2022-08-21T15:35:27;7.80;;;4.22;;
51242;SDS011;37812;47.556;18.718;2022-08-21T15:37:53;7.62;;;4.05;;
51242;SDS011;37812;47.556;18.718;2022-08-21T15:40:19;7.50;;;4.10;;
51242;SDS011;37812;47.556;18.718;2022-08-21T15:42:45;7.40;;;3.90;;
51242;SDS011;37812;47.556;18.718;2022-08-21T15:45:12;7.80;;;4.20;;
51242;SDS011;37812;47.556;18.718;2022-08-21T15:47:39;7.50;;;4.00;;
51242;SDS011;37812;47.556;18.718;2022-08-21T15:50:09;7.68;;;4.35;;
51242;SDS011;37812;47.556;18.718;2022-08-21T15:52:36;7.65;;;4.15;;
51242;SDS011;37812;47.556;18.718;2022-08-21T15:55:03;7.50;;;4.15;;
51242;SDS011;37812;47.556;18.718;2022-08-21T15:57:31;7.68;;;4.15;;
51242;SDS011;37812;47.556;18.718;2022-08-21T15:59:58;7.37;;;3.87;;
51242;SDS011;37812;47.556;18.718;2022-08-21T16:02:36;7.40;;;3.80;;
51242;SDS011;37812;47.556;18.718;2022-08-21T16:05:03;7.62;;;4.07;;
51242;SDS011;37812;47.556;18.718;2022-08-21T16:07:30;7.72;;;4.00;;
51242;SDS011;37812;47.556;18.718;2022-08-21T16:09:56;7.70;;;4.30;;
51242;SDS011;37812;47.556;18.718;2022-08-21T16:12:29;7.50;;;4.00;;